Time;durP1;ratioP1;P1;durP2;ratioP2;P2;SDS_P1;SDS_P2;PMS_P1;PMS_P2;Temp;Humidity;BMP_temperature;BMP_pressure;BME280_temperature;BME280_humidity;BME280_pressure;Samples;Min_cycle;Max_cycle;Signal;HPM_P1;HPM_P2
2021/05/26 00:00:06;;;;;;;2.28;0.70;;;15.10;79.50;15.00;100038.00;;;;342761;28;90125;-86
2021/05/26 00:00:18;;;;;;;2.90;0.57;;;15.10;79.70;15.00;100035.00;;;;342729;28;86943;-86
2021/05/26 00:00:30;;;;;;;2.38;0.50;;;15.00;79.80;15.10;100030.00;;;;339520;28;91166;-86
2021/05/26 00:00:42;;;;;;;1.20;0.40;;;15.00;79.50;15.00;100033.00;;;;342068;28;87212;-86
2021/05/26 00:00:56;;;;;;;1.73;0.40;;;15.00;79.60;15.00;100037.00;;;;340072;28;88395;-86
2021/05/26 00:01:08;;;;;;;5.00;0.50;;;15.00;79.50;14.90;100027.00;;;;339987;28;86893;-86
2021/05/26 00:01:20;;;;;;;4.90;0.50;;;15.00;79.60;14.80;100031.00;;;;341351;28;90517;-86
2021/05/26 00:01:32;;;;;;;1.70;0.43;;;15.00;79.70;14.70;100036.00;;;;341927;28;86087;-86
2021/05/26 00:01:44;;;;;;;1.80;0.40;;;15.00;79.90;14.70;100032.00;;;;341464;28;87146;-86
2021/05/26 00:01:56;;;;;;;2.13;0.35;;;15.00;80.00;14.80;100036.00;;;;342529;28;87139;-86
2021/05/26 00:02:08;;;;;;;2.30;0.40;;;15.00;80.00;14.70;100032.00;;;;340197;28;89124;-87
2021/05/26 00:02:20;;;;;;;2.78;0.50;;;15.00;80.10;14.60;100037.00;;;;341360;28;86982;-86
2021/05/26 00:02:32;;;;;;;1.73;0.50;;;15.00;80.20;14.60;100035.00;;;;341399;28;92401;-86
2021/05/26 00:02:44;;;;;;;1.77;0.55;;;15.00;80.20;14.60;100035.00;;;;342509;28;87609;-86
2021/05/26 00:02:56;;;;;;;1.83;0.50;;;15.00;80.80;14.60;100038.00;;;;344309;28;89105;-86
2021/05/26 00:03:07;;;;;;;2.08;0.65;;;14.90;80.20;14.70;100031.00;;;;341378;28;86878;-86
2021/05/26 00:03:19;;;;;;;2.45;0.70;;;14.90;80.20;14.70;100036.00;;;;341416;28;89483;-86
2021/05/26 00:03:31;;;;;;;2.70;0.63;;;14.90;80.20;14.70;100027.00;;;;339582;28;88439;-86
2021/05/26 00:03:43;;;;;;;3.58;0.65;;;14.90;80.40;14.70;100032.00;;;;342692;28;90050;-86
2021/05/26 00:03:55;;;;;;;3.33;0.60;;;14.90;80.30;14.80;100036.00;;;;341208;28;86239;-85
2021/05/26 00:04:08;;;;;;;2.90;0.60;;;14.90;80.00;14.90;100037.00;;;;342912;28;89116;-86
2021/05/26 00:04:20;;;;;;;1.48;0.30;;;14.90;79.80;14.90;100032.00;;;;342686;28;88366;-86
2021/05/26 00:04:32;;;;;;;1.75;0.30;;;14.90;79.60;15.00;100033.00;;;;342771;28;88905;-86
2021/05/26 00:04:43;;;;;;;2.25;0.52;;;14.90;79.60;14.90;100041.00;;;;343954;28;87013;-86
2021/05/26 00:04:56;;;;;;;2.63;0.50;;;14.90;79.80;14.90;100031.00;;;;341387;28;90535;-86
2021/05/26 00:05:09;;;;;;;2.45;0.55;;;14.90;80.10;14.80;100043.00;;;;342431;28;87910;-86
2021/05/26 00:05:21;;;;;;;2.58;0.80;;;14.90;79.90;14.90;100036.00;;;;341280;28;90658;-86
2021/05/26 00:05:32;;;;;;;2.25;0.80;;;14.90;79.70;15.10;100027.00;;;;341452;28;85946;-86
2021/05/26 00:05:47;;;;;;;2.80;0.80;;;14.90;79.70;15.20;100030.00;;;;340207;28;87062;-86
2021/05/26 00:05:59;;;;;;;2.35;0.60;;;15.00;79.90;15.00;100032.00;;;;344136;28;86893;-86
2021/05/26 00:06:11;;;;;;;1.85;0.50;;;14.90;80.00;15.10;100031.00;;;;340116;28;91601;-87
2021/05/26 00:06:23;;;;;;;2.42;0.50;;;14.90;79.90;15.10;100029.00;;;;341373;28;87047;-86
2021/05/26 00:06:34;;;;;;;3.13;0.50;;;15.00;80.10;14.90;100041.00;;;;343303;28;90768;-85
2021/05/26 00:06:46;;;;;;;3.15;0.50;;;15.00;80.20;15.00;100032.00;;;;341169;28;88860;-86
2021/05/26 00:06:58;;;;;;;2.25;0.57;;;15.00;80.10;15.10;100028.00;;;;340094;28;91578;-86
2021/05/26 00:07:10;;;;;;;2.17;0.68;;;15.00;79.90;14.90;100038.00;;;;338555;28;87029;-87
2021/05/26 00:07:22;;;;;;;2.20;0.57;;;15.00;80.00;15.10;100035.00;;;;341110;28;91510;-86
2021/05/26 00:07:34;;;;;;;1.30;0.40;;;14.90;79.90;15.10;100037.00;;;;342540;28;88345;-86
2021/05/26 00:07:46;;;;;;;1.45;0.40;;;15.00;79.80;15.20;100028.00;;;;342827;28;90875;-85
2021/05/26 00:07:58;;;;;;;3.55;0.93;;;15.00;80.00;15.30;100037.00;;;;341333;28;86943;-86
2021/05/26 00:08:09;;;;;;;3.85;1.10;;;15.00;80.10;15.30;100035.00;;;;342952;28;88883;-86
2021/05/26 00:08:29;;;;;;;3.45;1.10;;;15.00;80.00;15.10;100038.00;;;;339970;28;86880;-86
2021/05/26 00:08:41;;;;;;;2.25;0.55;;;15.00;80.40;14.90;100031.00;;;;341288;28;91270;-86
2021/05/26 00:08:53;;;;;;;3.00;0.68;;;15.00;80.50;15.00;100039.00;;;;339638;28;87442;-86
2021/05/26 00:09:05;;;;;;;2.92;0.75;;;15.00;80.30;15.00;100038.00;;;;342698;28;89425;-87
2021/05/26 00:09:17;;;;;;;2.70;0.80;;;15.00;80.10;15.00;100033.00;;;;341422;28;86894;-86
2021/05/26 00:09:29;;;;;;;2.17;0.63;;;15.00;80.80;15.00;100034.00;;;;340171;28;88809;-86
2021/05/26 00:09:41;;;;;;;1.80;0.40;;;15.00;80.40;14.90;100041.00;;;;340921;28;86245;-86
2021/05/26 00:09:53;;;;;;;1.60;0.40;;;14.90;80.50;14.90;100045.00;;;;341559;28;88676;-86
2021/05/26 00:10:05;;;;;;;2.20;0.60;;;15.00;80.40;15.00;100032.00;;;;341121;28;87033;-86
2021/05/26 00:10:17;;;;;;;3.22;0.63;;;14.90;80.20;15.00;100030.00;;;;340260;28;89468;-86
2021/05/26 00:10:29;;;;;;;3.13;0.60;;;14.90;80.10;15.10;100029.00;;;;340819;28;88077;-86
2021/05/26 00:10:41;;;;;;;3.25;0.60;;;14.90;80.00;15.00;100035.00;;;;340126;28;91228;-86
2021/05/26 00:10:54;;;;;;;2.55;0.47;;;14.90;80.20;15.10;100034.00;;;;338696;28;86948;-86
2021/05/26 00:11:09;;;;;;;2.42;0.50;;;14.90;80.10;15.10;100036.00;;;;342786;28;89485;-86
2021/05/26 00:11:20;;;;;;;1.92;0.68;;;14.90;80.30;14.90;100037.00;;;;341435;28;86836;-86
2021/05/26 00:11:32;;;;;;;5.07;0.65;;;14.90;81.30;14.90;100039.00;;;;345398;28;90869;-87
2021/05/26 00:11:44;;;;;;;5.97;0.68;;;14.90;80.60;15.00;100039.00;;;;341249;28;87913;-86
2021/05/26 00:11:56;;;;;;;5.80;0.50;;;14.90;80.40;15.10;100037.00;;;;340155;28;90775;-86
2021/05/26 00:12:08;;;;;;;2.45;0.40;;;14.90;80.40;15.00;100031.00;;;;342612;28;88509;-86
2021/05/26 00:12:20;;;;;;;1.80;0.50;;;14.90;80.60;15.00;100037.00;;;;341498;28;91659;-86
2021/05/26 00:12:32;;;;;;;1.98;0.57;;;14.90;80.80;14.90;100033.00;;;;341521;28;88076;-86
2021/05/26 00:12:44;;;;;;;1.95;0.52;;;14.90;80.80;14.90;100030.00;;;;340556;28;90571;-86
2021/05/26 00:12:56;;;;;;;2.53;0.63;;;14.90;80.80;14.90;100038.00;;;;343953;28;86878;-86
2021/05/26 00:13:08;;;;;;;2.60;0.60;;;14.90;81.00;15.10;100042.00;;;;344196;28;89936;-86
2021/05/26 00:13:20;;;;;;;2.38;0.50;;;14.80;80.50;15.00;100032.00;;;;342682;28;86993;-87
2021/05/26 00:13:33;;;;;;;2.47;0.80;;;14.90;80.70;15.00;100035.00;;;;344189;28;91161;-86
2021/05/26 00:13:46;;;;;;;1.92;0.70;;;14.80;80.40;15.00;100028.00;;;;341275;28;89062;-86
2021/05/26 00:13:58;;;;;;;1.95;0.82;;;14.90;80.40;15.10;100032.00;;;;340233;28;88319;-86
2021/05/26 00:14:10;;;;;;;1.83;0.55;;;14.90;80.30;15.10;100031.00;;;;344102;28;86936;-85
2021/05/26 00:14:22;;;;;;;1.40;0.43;;;14.90;80.40;14.90;100032.00;;;;337447;28;89288;-86
2021/05/26 00:14:33;;;;;;;1.13;0.45;;;14.80;80.70;14.90;100033.00;;;;341243;28;86157;-87
2021/05/26 00:14:45;;;;;;;0.98;0.40;;;14.80;80.50;14.80;100032.00;;;;341552;28;89632;-86
2021/05/26 00:14:57;;;;;;;1.00;0.40;;;14.80;80.60;14.70;100030.00;;;;342671;28;87046;-86
2021/05/26 00:15:10;;;;;;;0.90;0.40;;;14.80;80.70;14.80;100030.00;;;;340114;28;89050;-86
2021/05/26 00:15:22;;;;;;;1.02;0.40;;;14.80;80.80;14.80;100037.00;;;;342812;28;86975;-85
2021/05/26 00:15:33;;;;;;;1.88;0.55;;;14.80;81.00;14.90;100035.00;;;;340710;28;89326;-86
2021/05/26 00:15:46;;;;;;;1.98;0.50;;;14.90;80.90;14.70;100036.00;;;;343773;28;89308;-86
2021/05/26 00:15:58;;;;;;;2.00;0.50;;;14.80;80.70;14.80;100036.00;;;;340110;28;88405;-86
2021/05/26 00:16:10;;;;;;;1.65;0.60;;;14.80;80.60;14.80;100030.00;;;;339985;28;86979;-87
2021/05/26 00:16:25;;;;;;;1.98;0.80;;;14.80;81.30;14.80;100037.00;;;;341420;28;92517;-86
2021/05/26 00:16:38;;;;;;;1.92;0.70;;;14.80;81.00;14.90;100035.00;;;;339894;28;87390;-86
2021/05/26 00:16:50;;;;;;;2.20;0.60;;;14.80;80.80;14.90;100027.00;;;;341467;28;90854;-85
2021/05/26 00:17:04;;;;;;;2.67;0.60;;;14.80;80.60;15.00;100034.00;;;;341272;28;88301;-86
2021/05/26 00:17:15;;;;;;;1.92;0.70;;;14.80;80.60;14.90;100032.00;;;;343700;28;90483;-86
2021/05/26 00:17:28;;;;;;;2.05;0.70;;;14.90;80.60;15.10;100028.00;;;;342770;28;86818;-86
2021/05/26 00:17:40;;;;;;;1.73;0.55;;;14.80;80.60;14.90;100028.00;;;;342818;28;91806;-86
2021/05/26 00:17:52;;;;;;;1.45;0.47;;;14.80;80.90;14.90;100028.00;;;;341358;28;86156;-86
2021/05/26 00:18:04;;;;;;;1.35;0.50;;;14.80;80.90;15.00;100031.00;;;;341217;28;90504;-87
2021/05/26 00:18:16;;;;;;;1.48;0.52;;;14.80;80.70;15.00;100031.00;;;;339962;28;87684;-86
2021/05/26 00:18:28;;;;;;;1.75;0.60;;;14.80;80.60;14.80;100034.00;;;;342808;28;89045;-86
2021/05/26 00:18:40;;;;;;;1.95;0.57;;;14.80;80.80;15.00;100028.00;;;;341020;28;87760;-86
2021/05/26 00:18:53;;;;;;;2.13;0.55;;;14.80;80.70;15.00;100033.00;;;;340006;28;90889;-86
2021/05/26 00:19:07;;;;;;;2.78;0.75;;;14.80;80.60;15.10;100029.00;;;;340937;28;88384;-87
2021/05/26 00:19:19;;;;;;;4.20;0.70;;;14.80;80.70;15.00;100029.00;;;;339987;28;90565;-85
2021/05/26 00:19:31;;;;;;;3.85;0.63;;;14.80;80.60;15.00;100032.00;;;;341537;28;88268;-86
2021/05/26 00:19:43;;;;;;;3.45;0.50;;;14.90;80.70;14.90;100038.00;;;;341347;28;91693;-86
2021/05/26 00:19:56;;;;;;;2.25;0.57;;;14.80;80.70;14.90;100037.00;;;;339936;28;89217;-86
2021/05/26 00:20:09;;;;;;;1.85;0.50;;;14.90;80.90;14.80;100028.00;;;;342360;28;91059;-86
2021/05/26 00:20:21;;;;;;;1.73;0.65;;;14.80;80.70;14.90;100036.00;;;;342783;28;86897;-86
2021/05/26 00:20:32;;;;;;;1.83;0.60;;;14.80;80.50;15.00;100030.00;;;;340131;28;89667;-86
2021/05/26 00:20:46;;;;;;;1.73;0.60;;;14.80;80.50;14.90;100023.00;;;;342645;28;87382;-86
2021/05/26 00:20:59;;;;;;;1.55;0.60;;;14.80;80.70;15.00;100032.00;;;;342603;28;90610;-86
2021/05/26 00:21:17;;;;;;;1.67;0.60;;;14.80;80.40;15.20;100031.00;;;;341138;28;87433;-86
2021/05/26 00:21:30;;;;;;;1.42;0.45;;;14.80;80.60;15.20;100029.00;;;;342509;28;89573;-86
2021/05/26 00:21:42;;;;;;;1.40;0.52;;;14.80;80.70;15.10;100037.00;;;;339782;28;89010;-86
2021/05/26 00:21:54;;;;;;;1.40;0.60;;;14.90;80.80;15.00;100030.00;;;;341443;28;92386;-85
2021/05/26 00:22:06;;;;;;;1.38;0.45;;;14.90;80.90;15.00;100027.00;;;;341335;28;86243;-86
2021/05/26 00:22:18;;;;;;;1.35;0.40;;;14.90;80.60;15.00;100034.00;;;;340246;28;88960;-86
2021/05/26 00:22:29;;;;;;;1.65;0.40;;;14.80;80.40;14.90;100032.00;;;;340937;28;87070;-86
2021/05/26 00:22:41;;;;;;;2.70;0.68;;;14.90;80.60;15.00;100022.00;;;;341598;28;89153;-86
2021/05/26 00:22:53;;;;;;;3.00;0.85;;;14.90;80.50;15.00;100030.00;;;;341253;28;86982;-86
2021/05/26 00:23:05;;;;;;;2.25;0.80;;;14.90;80.70;14.80;100032.00;;;;338790;28;89648;-86
2021/05/26 00:23:17;;;;;;;2.08;0.80;;;14.80;80.70;14.90;100032.00;;;;342575;28;88438;-86
2021/05/26 00:23:29;;;;;;;2.08;0.70;;;14.80;80.80;14.90;100031.00;;;;343865;28;90718;-87
2021/05/26 00:23:41;;;;;;;2.50;0.60;;;14.90;80.90;14.90;100036.00;;;;344031;28;87052;-86
2021/05/26 00:23:52;;;;;;;3.28;0.60;;;14.80;80.90;15.00;100039.00;;;;345519;28;89744;-86
2021/05/26 00:24:05;;;;;;;2.97;0.68;;;14.80;80.60;15.10;100023.00;;;;341381;28;86922;-86
2021/05/26 00:24:17;;;;;;;2.72;0.70;;;14.90;80.70;15.10;100035.00;;;;341559;28;88547;-86
2021/05/26 00:24:28;;;;;;;2.17;0.70;;;14.90;80.60;15.10;100032.00;;;;341896;28;88536;-86
2021/05/26 00:24:40;;;;;;;1.85;0.60;;;14.90;80.50;15.20;100033.00;;;;343529;28;90574;-86
2021/05/26 00:24:52;;;;;;;2.15;0.70;;;14.90;80.50;15.10;100026.00;;;;339978;28;88288;-86
2021/05/26 00:25:04;;;;;;;2.40;0.60;;;14.90;80.40;15.20;100028.00;;;;341315;28;91534;-86
2021/05/26 00:25:16;;;;;;;3.08;0.63;;;14.90;80.30;15.20;100026.00;;;;341041;28;88223;-86
2021/05/26 00:25:28;;;;;;;2.83;0.70;;;14.90;80.40;15.10;100022.00;;;;341340;28;91626;-86
2021/05/26 00:25:40;;;;;;;2.80;0.80;;;14.90;80.50;15.10;100024.00;;;;338650;28;86961;-86
2021/05/26 00:25:52;;;;;;;2.42;0.80;;;14.90;81.20;15.00;100018.00;;;;340131;28;89110;-86
2021/05/26 00:26:04;;;;;;;1.92;0.63;;;14.90;80.60;15.00;100032.00;;;;339875;28;87380;-85
2021/05/26 00:26:16;;;;;;;1.85;0.60;;;14.90;81.30;15.00;100033.00;;;;341480;28;86556;-86
2021/05/26 00:26:28;;;;;;;1.88;0.60;;;14.90;80.60;15.00;100026.00;;;;344039;28;87016;-86
2021/05/26 00:26:40;;;;;;;2.05;0.68;;;14.90;80.70;15.00;100026.00;;;;344197;28;89281;-85
2021/05/26 00:26:51;;;;;;;2.52;0.70;;;14.90;80.80;14.90;100028.00;;;;342485;28;87980;-86
2021/05/26 00:27:04;;;;;;;3.00;0.85;;;14.90;80.80;15.00;100019.00;;;;341429;28;92099;-85
2021/05/26 00:27:15;;;;;;;2.63;0.80;;;14.90;80.60;15.00;100028.00;;;;341229;28;89580;-86
2021/05/26 00:27:27;;;;;;;1.85;0.65;;;14.90;80.60;14.90;100025.00;;;;341247;28;89474;-86
2021/05/26 00:27:39;;;;;;;1.55;0.50;;;14.80;80.60;15.00;100021.00;;;;342309;28;86091;-86
2021/05/26 00:27:57;;;;;;;1.60;0.50;;;14.90;80.50;15.10;100024.00;;;;340128;28;91552;-85
2021/05/26 00:28:09;;;;;;;3.20;0.73;;;14.90;80.50;14.90;100024.00;;;;340031;28;86587;-87
2021/05/26 00:28:21;;;;;;;4.00;0.90;;;14.90;81.30;14.90;100023.00;;;;340106;28;91038;-86
2021/05/26 00:28:33;;;;;;;2.80;0.75;;;14.80;80.90;14.90;100024.00;;;;340512;28;88955;-86
2021/05/26 00:28:46;;;;;;;1.15;0.40;;;14.80;80.80;14.80;100020.00;;;;340188;28;88103;-86
2021/05/26 00:28:58;;;;;;;0.95;0.40;;;14.80;80.70;14.90;100020.00;;;;342809;28;85942;-86
2021/05/26 00:29:10;;;;;;;1.08;0.32;;;14.80;81.40;14.90;100031.00;;;;341327;28;91618;-87
2021/05/26 00:29:22;;;;;;;1.98;0.50;;;14.80;80.70;15.00;100029.00;;;;342650;28;88881;-86
2021/05/26 00:29:34;;;;;;;2.78;0.60;;;14.80;80.50;15.00;100022.00;;;;340235;28;89432;-86
2021/05/26 00:29:47;;;;;;;2.80;0.50;;;14.80;80.50;14.90;100032.00;;;;339837;28;88044;-86
2021/05/26 00:29:59;;;;;;;3.95;0.50;;;14.80;80.80;14.90;100025.00;;;;342849;28;91618;-86
2021/05/26 00:30:12;;;;;;;4.15;0.50;;;14.80;80.90;14.70;100024.00;;;;342643;28;88372;-88
2021/05/26 00:30:29;;;;;;;3.47;0.40;;;14.80;80.90;14.70;100020.00;;;;342494;28;90292;-86
2021/05/26 00:30:48;;;;;;;3.30;0.50;;;14.80;81.00;14.80;100018.00;;;;340748;28;87982;-86
2021/05/26 00:31:01;;;;;;;4.00;0.52;;;14.80;80.90;14.90;100025.00;;;;342056;28;91101;-85
2021/05/26 00:31:13;;;;;;;3.30;0.60;;;14.80;80.80;14.90;100018.00;;;;342406;28;87358;-87
2021/05/26 00:31:25;;;;;;;2.60;0.60;;;14.80;80.80;14.80;100023.00;;;;341560;28;89475;-86
2021/05/26 00:31:37;;;;;;;1.35;0.50;;;14.80;81.00;14.80;100018.00;;;;342530;28;86099;-86
2021/05/26 00:31:49;;;;;;;1.45;0.50;;;14.80;81.10;14.70;100020.00;;;;344130;28;89731;-85
2021/05/26 00:32:01;;;;;;;1.42;0.45;;;14.70;81.00;14.70;100016.00;;;;342535;28;87012;-86
2021/05/26 00:32:13;;;;;;;1.70;0.40;;;14.80;81.00;14.80;100021.00;;;;344081;28;91956;-86
2021/05/26 00:32:24;;;;;;;2.25;0.55;;;14.70;80.70;14.80;100016.00;;;;343919;28;88201;-85
2021/05/26 00:32:37;;;;;;;2.20;0.57;;;14.70;81.10;14.80;100019.00;;;;344197;28;90922;-86
2021/05/26 00:32:49;;;;;;;3.00;0.55;;;14.70;81.10;14.80;100014.00;;;;342762;28;87006;-86
2021/05/26 00:33:01;;;;;;;2.72;0.60;;;14.70;81.10;14.80;100017.00;;;;344142;28;88928;-87
2021/05/26 00:33:14;;;;;;;2.28;0.50;;;14.70;81.00;14.80;100010.00;;;;343557;28;87066;-86
2021/05/26 00:33:25;;;;;;;1.90;0.43;;;14.70;80.90;14.80;100014.00;;;;341341;28;89294;-86
2021/05/26 00:33:37;;;;;;;2.10;0.40;;;14.70;81.00;14.90;100016.00;;;;343775;28;86910;-87
2021/05/26 00:33:49;;;;;;;2.30;0.50;;;14.70;81.00;14.90;100013.00;;;;342260;28;90554;-86
2021/05/26 00:34:02;;;;;;;1.95;0.50;;;14.80;81.20;14.90;100010.00;;;;340620;28;88006;-86
2021/05/26 00:34:13;;;;;;;1.80;0.60;;;14.70;81.00;14.90;100007.00;;;;340023;28;91365;-86
2021/05/26 00:34:25;;;;;;;1.27;0.50;;;14.70;80.90;14.90;100010.00;;;;341066;28;86265;-86
2021/05/26 00:34:37;;;;;;;1.25;0.55;;;14.70;80.90;14.90;100015.00;;;;342685;28;88741;-86
2021/05/26 00:34:49;;;;;;;1.50;0.63;;;14.70;80.90;14.70;100009.00;;;;341385;28;86999;-86
2021/05/26 00:35:01;;;;;;;1.50;0.60;;;14.70;80.90;14.70;100007.00;;;;342871;28;89282;-86
2021/05/26 00:35:13;;;;;;;1.40;0.32;;;14.70;81.10;14.70;100008.00;;;;342631;28;86906;-86
2021/05/26 00:35:25;;;;;;;1.73;0.45;;;14.70;81.10;14.90;100010.00;;;;342791;28;92802;-86
2021/05/26 00:35:37;;;;;;;1.65;0.50;;;14.70;81.00;14.90;100013.00;;;;345022;28;87355;-86
2021/05/26 00:35:49;;;;;;;1.83;0.77;;;14.70;80.90;15.00;100010.00;;;;341457;28;88487;-86
2021/05/26 00:36:00;;;;;;;1.52;0.77;;;14.70;80.80;15.00;100009.00;;;;344131;28;87092;-86
2021/05/26 00:36:12;;;;;;;1.63;0.65;;;14.70;80.80;15.00;100018.00;;;;341560;28;88411;-87
2021/05/26 00:36:24;;;;;;;1.50;0.60;;;14.70;80.80;14.90;100010.00;;;;341335;28;86191;-86
2021/05/26 00:36:36;;;;;;;1.90;0.60;;;14.80;80.90;15.00;100011.00;;;;343664;28;87353;-86
2021/05/26 00:36:48;;;;;;;1.80;0.55;;;14.70;80.70;14.90;100012.00;;;;341231;28;88133;-86
2021/05/26 00:37:00;;;;;;;1.60;0.60;;;14.70;80.60;14.90;100007.00;;;;341754;28;89365;-85
2021/05/26 00:37:12;;;;;;;1.73;0.82;;;14.70;80.70;14.80;100014.00;;;;342574;28;88750;-86
2021/05/26 00:37:24;;;;;;;1.95;1.00;;;14.80;80.80;14.80;100010.00;;;;341530;28;89073;-86
2021/05/26 00:37:36;;;;;;;2.03;0.90;;;14.70;81.00;14.80;100015.00;;;;343833;28;87225;-86
2021/05/26 00:37:52;;;;;;;1.85;0.50;;;14.80;81.20;14.80;100007.00;;;;342577;28;89803;-86
2021/05/26 00:38:04;;;;;;;1.67;0.50;;;14.70;80.90;14.80;100003.00;;;;342702;28;86905;-86
2021/05/26 00:38:16;;;;;;;1.80;0.60;;;14.70;80.80;14.70;100006.00;;;;341489;28;89551;-86
2021/05/26 00:38:28;;;;;;;1.75;0.70;;;14.70;80.80;14.70;100010.00;;;;342481;28;87271;-86
2021/05/26 00:38:40;;;;;;;1.60;0.65;;;14.70;81.00;14.70;100007.00;;;;342765;28;90956;-86
2021/05/26 00:38:52;;;;;;;1.92;0.80;;;14.70;81.20;14.80;100006.00;;;;341252;28;88369;-86
2021/05/26 00:39:05;;;;;;;2.28;0.85;;;14.70;81.60;14.80;100002.00;;;;344042;28;89727;-86
2021/05/26 00:39:17;;;;;;;2.63;0.80;;;14.70;80.80;14.80;100004.00;;;;342433;28;86855;-86
2021/05/26 00:39:29;;;;;;;2.22;0.70;;;14.70;80.70;14.80;100010.00;;;;342781;28;91904;-86
2021/05/26 00:39:41;;;;;;;2.33;0.70;;;14.70;80.70;14.80;100006.00;;;;341059;28;87539;-86
2021/05/26 00:39:53;;;;;;;1.83;0.65;;;14.70;80.70;14.80;100009.00;;;;341494;28;89814;-86
2021/05/26 00:40:06;;;;;;;1.55;0.55;;;14.70;80.70;14.90;100012.00;;;;341227;28;88379;-86
2021/05/26 00:40:18;;;;;;;2.13;0.50;;;14.70;80.70;14.90;100004.00;;;;342513;28;90628;-86
2021/05/26 00:40:30;;;;;;;2.13;0.55;;;14.70;80.80;14.90;99999.00;;;;341044;28;86190;-86
2021/05/26 00:40:42;;;;;;;2.50;0.70;;;14.70;81.40;15.00;99999.00;;;;341470;28;90850;-86
2021/05/26 00:40:53;;;;;;;1.77;0.63;;;14.70;81.00;14.90;100003.00;;;;339958;28;88532;-87
2021/05/26 00:41:05;;;;;;;2.03;0.60;;;14.70;81.00;14.80;100006.00;;;;341477;28;89151;-87
2021/05/26 00:41:17;;;;;;;2.13;0.50;;;14.70;81.20;14.80;100006.00;;;;342653;28;88878;-86
2021/05/26 00:41:29;;;;;;;2.08;0.45;;;14.70;81.00;14.80;99997.00;;;;341342;28;90933;-86
2021/05/26 00:41:41;;;;;;;2.17;0.52;;;14.70;80.90;14.90;100002.00;;;;339999;28;86873;-86
2021/05/26 00:41:53;;;;;;;2.30;0.60;;;14.70;80.80;15.00;100008.00;;;;342850;28;92059;-86
2021/05/26 00:42:05;;;;;;;1.75;0.52;;;14.70;80.80;15.10;100001.00;;;;342725;28;87800;-86
2021/05/26 00:42:20;;;;;;;1.35;0.40;;;14.70;80.80;15.10;99995.00;;;;341478;28;91763;-86
2021/05/26 00:42:32;;;;;;;1.90;0.50;;;14.80;81.00;15.10;100005.00;;;;342341;28;87115;-86
2021/05/26 00:42:44;;;;;;;1.90;0.50;;;14.80;80.90;15.00;100000.00;;;;339951;28;88777;-86
2021/05/26 00:42:56;;;;;;;1.80;0.65;;;14.80;80.90;14.80;100003.00;;;;341129;28;86985;-86
2021/05/26 00:43:08;;;;;;;2.10;0.68;;;14.80;81.20;14.90;100002.00;;;;340116;28;89251;-86
2021/05/26 00:43:20;;;;;;;1.85;0.60;;;14.80;80.90;15.00;99999.00;;;;341240;28;88235;-86
2021/05/26 00:43:32;;;;;;;1.75;0.40;;;14.80;80.80;15.00;99999.00;;;;341876;28;91633;-86
2021/05/26 00:43:44;;;;;;;2.22;0.50;;;14.80;80.80;14.90;99993.00;;;;344000;28;87578;-86
2021/05/26 00:43:56;;;;;;;2.92;0.50;;;14.80;80.90;14.80;99997.00;;;;343944;28;90742;-86
2021/05/26 00:44:08;;;;;;;2.67;0.55;;;14.70;80.80;14.80;100001.00;;;;342799;28;86001;-85
2021/05/26 00:44:20;;;;;;;1.77;0.50;;;14.70;80.80;14.90;99999.00;;;;344154;28;91520;-86
2021/05/26 00:44:32;;;;;;;1.70;0.80;;;14.70;80.70;14.80;99994.00;;;;343966;28;87334;-86
2021/05/26 00:44:44;;;;;;;1.84;0.70;;;14.70;80.80;14.90;99998.00;;;;342878;28;88705;-86
2021/05/26 00:44:55;;;;;;;1.80;0.77;;;14.70;80.90;15.00;99998.00;;;;342802;28;86843;-86
2021/05/26 00:45:08;;;;;;;1.77;0.60;;;14.70;81.00;15.10;99996.00;;;;341351;28;91103;-86
2021/05/26 00:45:20;;;;;;;2.33;0.60;;;14.70;81.10;15.10;99988.00;;;;344103;28;86927;-86
2021/05/26 00:45:32;;;;;;;2.90;0.70;;;14.80;81.00;15.20;100000.00;;;;341003;28;89997;-86
2021/05/26 00:45:45;;;;;;;2.45;0.57;;;14.80;81.10;15.10;99995.00;;;;341052;28;86987;-86
2021/05/26 00:45:57;;;;;;;2.58;0.60;;;14.80;81.00;15.10;99993.00;;;;344030;28;91720;-86
2021/05/26 00:46:09;;;;;;;2.85;0.60;;;14.80;80.90;15.10;99991.00;;;;341435;28;86871;-86
2021/05/26 00:46:21;;;;;;;2.20;0.60;;;14.80;81.60;15.10;99998.00;;;;344305;28;88742;-86
2021/05/26 00:46:40;;;;;;;2.38;0.50;;;14.80;80.90;15.20;99998.00;;;;343878;28;87497;-86
2021/05/26 00:46:52;;;;;;;2.25;0.50;;;14.80;80.90;15.20;99999.00;;;;341409;28;91081;-86
2021/05/26 00:47:04;;;;;;;2.45;0.70;;;14.80;81.00;15.10;99990.00;;;;342518;28;87007;-86
2021/05/26 00:47:41;;;;;;;2.08;0.60;;;14.80;81.20;15.00;99997.00;;;;341417;28;91570;-86
2021/05/26 00:47:53;;;;;;;2.40;0.52;;;14.80;81.00;15.00;99992.00;;;;341253;28;87148;-86
2021/05/26 00:48:05;;;;;;;2.00;0.50;;;14.80;80.80;15.00;99991.00;;;;341519;28;89421;-86
2021/05/26 00:48:17;;;;;;;1.73;0.55;;;14.80;80.70;15.00;99984.00;;;;339971;28;88315;-85
2021/05/26 00:48:29;;;;;;;2.13;1.00;;;14.80;81.00;15.00;99989.00;;;;340844;28;91224;-86
2021/05/26 00:48:41;;;;;;;1.77;0.80;;;14.80;80.80;14.90;99995.00;;;;342309;28;87023;-86
2021/05/26 00:48:53;;;;;;;1.35;0.55;;;14.80;80.90;15.00;99980.00;;;;342840;28;89507;-86
2021/05/26 00:49:05;;;;;;;1.63;0.63;;;14.80;80.80;14.80;99989.00;;;;342261;28;88654;-86
2021/05/26 00:49:17;;;;;;;3.22;0.70;;;14.80;81.00;14.90;99992.00;;;;339939;28;91608;-86
2021/05/26 00:49:28;;;;;;;3.17;0.52;;;14.80;81.00;15.00;99990.00;;;;340986;28;87431;-86
2021/05/26 00:49:40;;;;;;;3.00;0.50;;;14.70;80.70;14.90;99990.00;;;;340157;28;90484;-86
2021/05/26 00:49:52;;;;;;;2.30;0.47;;;14.70;80.90;14.80;99985.00;;;;341287;28;88571;-86
2021/05/26 00:50:05;;;;;;;2.15;0.45;;;14.70;81.50;14.70;99990.00;;;;340071;28;90614;-85
2021/05/26 00:50:21;;;;;;;2.08;0.52;;;14.70;81.30;14.70;99990.00;;;;341329;28;86996;-86
2021/05/26 00:50:35;;;;;;;2.10;0.70;;;14.70;81.20;14.80;99989.00;;;;341325;28;90904;-85
2021/05/26 00:50:47;;;;;;;1.55;0.65;;;14.70;80.90;14.70;99989.00;;;;341379;28;86904;-86
2021/05/26 00:50:59;;;;;;;1.90;0.68;;;14.70;81.10;14.60;99984.00;;;;342685;28;91818;-86
2021/05/26 00:51:11;;;;;;;1.95;0.60;;;14.70;81.30;14.70;99994.00;;;;341276;28;86647;-86
2021/05/26 00:51:23;;;;;;;2.22;0.68;;;14.70;81.20;14.80;99991.00;;;;342869;28;89005;-86
2021/05/26 00:51:35;;;;;;;1.45;0.45;;;14.70;81.10;14.60;99985.00;;;;343478;28;87368;-86
2021/05/26 00:51:47;;;;;;;1.40;0.40;;;14.70;81.20;14.60;99982.00;;;;343929;28;91166;-86
2021/05/26 00:51:59;;;;;;;1.60;0.60;;;14.70;82.10;14.60;99989.00;;;;341109;28;86989;-86
2021/05/26 00:52:11;;;;;;;1.92;0.63;;;14.70;81.40;14.60;99985.00;;;;342766;28;92053;-86
2021/05/26 00:52:23;;;;;;;2.42;0.60;;;14.70;81.60;14.50;99983.00;;;;341238;28;86867;-86
2021/05/26 00:52:35;;;;;;;3.05;0.60;;;14.70;81.70;14.40;99996.00;;;;339977;28;91500;-86
2021/05/26 00:52:48;;;;;;;3.40;0.70;;;14.60;81.60;14.50;99994.00;;;;341030;28;88336;-87
2021/05/26 00:53:08;;;;;;;3.63;0.77;;;14.60;81.70;14.60;99993.00;;;;342515;28;90734;-86
2021/05/26 00:53:21;;;;;;;3.22;0.75;;;14.60;81.40;14.50;99989.00;;;;342845;28;85655;-86
2021/05/26 00:53:35;;;;;;;2.15;0.70;;;14.60;81.60;14.50;99988.00;;;;344240;28;88535;-86
2021/05/26 00:53:47;;;;;;;1.88;0.60;;;14.60;81.90;14.50;99988.00;;;;343926;28;88660;-86
2021/05/26 00:53:58;;;;;;;2.50;0.80;;;14.60;81.70;14.70;99981.00;;;;342906;28;87802;-85
2021/05/26 00:54:11;;;;;;;3.38;0.80;;;14.50;81.50;14.70;99986.00;;;;341391;28;86863;-86
2021/05/26 00:54:23;;;;;;;3.70;0.77;;;14.60;81.60;14.60;99995.00;;;;340192;28;89295;-86
2021/05/26 00:54:35;;;;;;;2.83;0.50;;;14.50;81.70;14.70;99982.00;;;;340812;28;87938;-86
2021/05/26 00:54:46;;;;;;;3.72;0.60;;;14.50;81.50;14.70;99993.00;;;;341115;28;90663;-86
2021/05/26 00:54:58;;;;;;;3.40;0.55;;;14.60;81.70;14.70;99986.00;;;;342715;28;87117;-86
2021/05/26 00:55:13;;;;;;;2.97;0.60;;;14.50;81.60;14.70;99989.00;;;;342713;28;89562;-86